Maersk Drummond — A8JF3 — position and weather

sailwx.info

Track history (hours):
 
Tides and Currents Weather Stations Pressure Air Temp Water Temp Dewpoint Dewpoint Depression Visibility Wind Speed Wind Dir Waves Ship Positions

Maersk Drummond

Last reported at 2015-May-06 20:31 UTC. Time now 2015-May-06 21:33 UTC.
Position N 29°41' W 094°60'.

Length 294 m; draft 11.5 m.

Type: Ship (hazmat cat A). MMSI: 636091082.

Date/timePositionNaut miles runAvg speedWind from/ knotsBaromVisibWave heightAir tempDewpointWater temp
2015-May-06 20:31N 29°41' W 094°60'0 0.0
2015-May-06 19:28N 29°41' W 094°60'0 0.0
2015-May-06 18:31N 29°41' W 094°60'0 0.0
2015-May-06 17:31N 29°41' W 094°60'0 0.0
2015-May-06 16:31N 29°41' W 094°60'0 0.0
2015-May-06 15:31N 29°41' W 094°60'0 0.0
2015-May-06 14:31N 29°41' W 094°60'0 0.0
2015-May-06 13:31N 29°41' W 094°60'0 0.0
2015-May-06 12:31N 29°41' W 094°60'0 0.0
2015-May-06 11:31N 29°41' W 094°60'0 0.0
2015-May-06 10:31N 29°41' W 094°60'0 0.0
2015-May-06 09:31N 29°41' W 094°60'0 0.0
2015-May-06 08:31N 29°41' W 094°60'0 0.0
2015-May-06 07:31N 29°41' W 094°60'0 0.0
2015-May-06 06:31N 29°41' W 094°60'0 0.0
2015-May-06 04:25N 29°41' W 094°60'0 0.0
2015-May-06 03:31N 29°41' W 094°60'0 0.4
2015-May-06 02:34N 29°41' W 095°00'5 5.2
2015-May-06 01:33N 29°36' W 094°57'1211.8
2015-May-06 00:33N 29°26' W 094°50'  
2015-May-03 04:19N 19°45' W 096°11'1114.8
2015-May-03 03:34N 19°35' W 096°06'1514.6
2015-May-03 02:34N 19°22' W 095°59'1211.6
2015-May-03 01:33N 19°11' W 096°04'4 4.0
2015-May-03 00:33N 19°13' W 096°08'0 0.0
2015-May-02 23:33N 19°13' W 096°08'0 0.0
2015-May-02 22:33N 19°13' W 096°08'0 0.0
2015-May-02 21:33N 19°13' W 096°08'0 0.0
2015-May-02 20:33N 19°13' W 096°08'0 0.0
2015-May-02 19:33N 19°13' W 096°08'0 0.0
2015-May-02 18:33N 19°13' W 096°08'0 0.0
2015-May-02 17:33N 19°13' W 096°08'0 0.0
2015-May-02 16:33N 19°13' W 096°08'0 0.0
2015-May-02 15:33N 19°13' W 096°08'0 0.0
2015-May-02 14:33N 19°13' W 096°08'0 0.0
2015-May-02 13:33N 19°13' W 096°08'0 0.0
2015-May-02 12:33N 19°13' W 096°08'0 0.0
2015-May-02 11:33N 19°13' W 096°08'0 0.0
2015-May-02 10:33N 19°13' W 096°08'0 0.0
2015-May-02 09:33N 19°13' W 096°08'0 0.0
2015-May-02 08:33N 19°13' W 096°08'0 0.0
2015-May-02 07:33N 19°13' W 096°08'0 0.0
2015-May-02 06:33N 19°13' W 096°08'1 0.9
2015-May-02 05:33N 19°12' W 096°07'8 8.0
2015-May-02 04:34N 19°13' W 095°59'1211.2
2015-May-02 03:29N 19°19' W 095°48'1 1.1
2015-May-02 02:32N 19°20' W 095°48'1 1.0
2015-May-02 01:32N 19°21' W 095°48'1 0.7
2015-May-02 00:32N 19°21' W 095°48'3 3.3
2015-May-01 23:33N 19°20' W 095°44'  
Track history (hours):
 
Tides and Currents Weather Stations Pressure Air Temp Water Temp Dewpoint Dewpoint Depression Visibility Wind Speed Wind Dir Waves Ship Positions

Maersk Drummond

Last reported at 2015-May-06 20:31 UTC. Time now 2015-May-06 21:33 UTC.
Position N 29°41' W 094°60'.

Length 294 m; draft 11.5 m.

Type: Ship (hazmat cat A). MMSI: 636091082.

Date/timePositionNaut miles runAvg speedWind from/ knotsBaromVisibWave heightAir tempDewpointWater temp
2015-May-06 20:31N 29°41' W 094°60'0 0.0
2015-May-06 19:28N 29°41' W 094°60'0 0.0
2015-May-06 18:31N 29°41' W 094°60'0 0.0
2015-May-06 17:31N 29°41' W 094°60'0 0.0
2015-May-06 16:31N 29°41' W 094°60'0 0.0
2015-May-06 15:31N 29°41' W 094°60'0 0.0
2015-May-06 14:31N 29°41' W 094°60'0 0.0
2015-May-06 13:31N 29°41' W 094°60'0 0.0
2015-May-06 12:31N 29°41' W 094°60'0 0.0
2015-May-06 11:31N 29°41' W 094°60'0 0.0
2015-May-06 10:31N 29°41' W 094°60'0 0.0
2015-May-06 09:31N 29°41' W 094°60'0 0.0
2015-May-06 08:31N 29°41' W 094°60'0 0.0
2015-May-06 07:31N 29°41' W 094°60'0 0.0
2015-May-06 06:31N 29°41' W 094°60'0 0.0
2015-May-06 04:25N 29°41' W 094°60'0 0.0
2015-May-06 03:31N 29°41' W 094°60'0 0.4
2015-May-06 02:34N 29°41' W 095°00'5 5.2
2015-May-06 01:33N 29°36' W 094°57'1211.8
2015-May-06 00:33N 29°26' W 094°50'  
2015-May-03 04:19N 19°45' W 096°11'1114.8
2015-May-03 03:34N 19°35' W 096°06'1514.6
2015-May-03 02:34N 19°22' W 095°59'1211.6
2015-May-03 01:33N 19°11' W 096°04'4 4.0
2015-May-03 00:33N 19°13' W 096°08'0 0.0
2015-May-02 23:33N 19°13' W 096°08'0 0.0
2015-May-02 22:33N 19°13' W 096°08'0 0.0
2015-May-02 21:33N 19°13' W 096°08'0 0.0
2015-May-02 20:33N 19°13' W 096°08'0 0.0
2015-May-02 19:33N 19°13' W 096°08'0 0.0
2015-May-02 18:33N 19°13' W 096°08'0 0.0
2015-May-02 17:33N 19°13' W 096°08'0 0.0
2015-May-02 16:33N 19°13' W 096°08'0 0.0
2015-May-02 15:33N 19°13' W 096°08'0 0.0
2015-May-02 14:33N 19°13' W 096°08'0 0.0
2015-May-02 13:33N 19°13' W 096°08'0 0.0
2015-May-02 12:33N 19°13' W 096°08'0 0.0
2015-May-02 11:33N 19°13' W 096°08'0 0.0
2015-May-02 10:33N 19°13' W 096°08'0 0.0
2015-May-02 09:33N 19°13' W 096°08'0 0.0
2015-May-02 08:33N 19°13' W 096°08'0 0.0
2015-May-02 07:33N 19°13' W 096°08'0 0.0
2015-May-02 06:33N 19°13' W 096°08'1 0.9
2015-May-02 05:33N 19°12' W 096°07'8 8.0
2015-May-02 04:34N 19°13' W 095°59'1211.2
2015-May-02 03:29N 19°19' W 095°48'1 1.1
2015-May-02 02:32N 19°20' W 095°48'1 1.0
2015-May-02 01:32N 19°21' W 095°48'1 0.7
2015-May-02 00:32N 19°21' W 095°48'3 3.3
2015-May-01 23:33N 19°20' W 095°44'  

Dump ship's entire track history